Time;durP1;ratioP1;P1;durP2;ratioP2;P2;SDS_P1;SDS_P2;PMS_P1;PMS_P2;Temp;Humidity;BMP_temperature;BMP_pressure;BME280_temperature;BME280_humidity;BME280_pressure;Samples;Min_cycle;Max_cycle;Signal;HPM_P1;HPM_P2
2022/05/15 00:02:05;;;;;;;0.75;0.28;;;;;;;;;;5019354;28;19916;-94
2022/05/15 00:04:32;;;;;;;0.40;0.40;;;;;;;;;;5029439;28;20049;-96
2022/05/15 00:06:58;;;;;;;0.43;0.43;;;;;;;;;;5027340;28;20065;-94
2022/05/15 00:09:24;;;;;;;0.20;0.20;;;;;;;;;;5011530;28;20025;-95
2022/05/15 00:11:51;;;;;;;4.40;0.47;;;;;;;;;;5022555;28;20481;-96
2022/05/15 00:14:17;;;;;;;;;;;;;;;;;;5023971;28;20042;-95
2022/05/15 00:16:43;;;;;;;0.20;0.15;;;;;;;;;;5021761;28;19921;-95
2022/05/15 00:19:09;;;;;;;1.80;0.15;;;;;;;;;;5020133;28;20029;-94
2022/05/15 00:21:36;;;;;;;0.45;0.45;;;;;;;;;;5018630;28;20040;-95
2022/05/15 00:24:04;;;;;;;0.25;0.25;;;;;;;;;;5014954;28;20037;-96
2022/05/15 00:26:31;;;;;;;0.22;0.22;;;;;;;;;;5018918;28;20053;-96
2022/05/15 00:28:57;;;;;;;0.03;0.03;;;;;;;;;;5021525;28;20037;-96
2022/05/15 00:31:23;;;;;;;0.47;0.47;;;;;;;;;;5018968;28;20025;-94
2022/05/15 00:33:50;;;;;;;0.73;0.47;;;;;;;;;;5021823;28;20052;-96
2022/05/15 00:36:16;;;;;;;0.57;0.25;;;;;;;;;;5003170;28;20486;-94
2022/05/15 00:38:44;;;;;;;0.15;0.15;;;;;;;;;;4997104;28;20034;-94
2022/05/15 00:41:10;;;;;;;0.30;0.30;;;;;;;;;;5027376;28;20048;-95
2022/05/15 00:43:36;;;;;;;;;;;;;;;;;;5027512;28;20083;-95
2022/05/15 00:46:03;;;;;;;0.55;0.52;;;;;;;;;;5011032;28;20336;-95
2022/05/15 00:48:29;;;;;;;0.30;0.30;;;;;;;;;;5011428;28;20083;-95
2022/05/15 00:50:56;;;;;;;0.20;0.20;;;;;;;;;;5029137;28;20025;-95
2022/05/15 00:53:22;;;;;;;0.20;0.20;;;;;;;;;;5029114;28;20033;-94
2022/05/15 00:55:50;;;;;;;0.15;0.15;;;;;;;;;;5011112;28;20033;-94
2022/05/15 00:58:18;;;;;;;0.20;0.20;;;;;;;;;;5029193;28;20546;-95
2022/05/15 01:00:44;;;;;;;1.02;0.60;;;;;;;;;;5027752;28;20040;-94
2022/05/15 01:03:18;;;;;;;0.38;0.38;;;;;;;;;;5028760;28;20033;-94
2022/05/15 01:05:47;;;;;;;0.38;0.38;;;;;;;;;;5019826;28;20034;-95
2022/05/15 01:08:13;;;;;;;0.25;0.22;;;;;;;;;;5001116;28;20034;-94
2022/05/15 01:10:43;;;;;;;0.20;0.20;;;;;;;;;;5000567;28;20438;-95
2022/05/15 01:13:10;;;;;;;1.13;0.57;;;;;;;;;;5021493;28;20041;-94
2022/05/15 01:15:36;;;;;;;;;;;;;;;;;;5004147;28;20029;-94
2022/05/15 01:18:02;;;;;;;;;;;;;;;;;;5015832;28;21993;-93
2022/05/15 01:20:29;;;;;;;2.42;0.57;;;;;;;;;;5009401;28;19917;-93
2022/05/15 01:22:56;;;;;;;0.00;0.00;;;;;;;;;;5017152;28;20411;-95
2022/05/15 01:25:27;;;;;;;0.17;0.17;;;;;;;;;;5015183;28;20099;-93
2022/05/15 01:28:05;;;;;;;2.30;0.40;;;;;;;;;;5002778;28;20083;-93
2022/05/15 01:30:32;;;;;;;0.82;0.82;;;;;;;;;;5019368;28;20061;-94
2022/05/15 01:32:58;;;;;;;;;;;;;;;;;;5025031;28;20575;-92
2022/05/15 01:35:24;;;;;;;0.52;0.47;;;;;;;;;;5000098;28;19972;-95
2022/05/15 01:37:50;;;;;;;0.20;0.20;;;;;;;;;;5005762;28;20132;-94
2022/05/15 01:40:17;;;;;;;0.43;0.10;;;;;;;;;;5007801;28;20025;-94
2022/05/15 01:42:43;;;;;;;1.48;1.02;;;;;;;;;;5027065;28;20066;-93
2022/05/15 01:45:10;;;;;;;0.03;0.03;;;;;;;;;;5022453;28;20045;-94
2022/05/15 01:47:36;;;;;;;0.28;0.28;;;;;;;;;;5005504;28;20045;-94
2022/05/15 01:50:03;;;;;;;0.25;0.25;;;;;;;;;;5005613;28;20775;-93
2022/05/15 01:52:29;;;;;;;0.00;0.00;;;;;;;;;;5001914;28;20184;-93
2022/05/15 01:54:55;;;;;;;0.88;0.70;;;;;;;;;;5019215;28;20138;-92
2022/05/15 01:57:21;;;;;;;0.38;0.38;;;;;;;;;;5023502;28;20036;-93
2022/05/15 01:59:47;;;;;;;0.15;0.15;;;;;;;;;;5019754;28;20044;-93
2022/05/15 02:02:13;;;;;;;0.80;0.80;;;;;;;;;;5012659;28;20391;-92
2022/05/15 02:04:39;;;;;;;0.30;0.30;;;;;;;;;;5020931;28;20502;-93
2022/05/15 02:07:06;;;;;;;0.35;0.35;;;;;;;;;;5013216;28;20029;-95
2022/05/15 02:09:32;;;;;;;0.10;0.10;;;;;;;;;;5024334;28;20059;-94
2022/05/15 02:11:59;;;;;;;0.08;0.08;;;;;;;;;;5008284;28;20506;-93
2022/05/15 02:14:25;;;;;;;;;;;;;;;;;;5024599;28;20045;-94
2022/05/15 02:16:51;;;;;;;0.20;0.20;;;;;;;;;;5023523;28;19924;-94
2022/05/15 02:19:17;;;;;;;0.15;0.15;;;;;;;;;;5019339;28;20046;-93
2022/05/15 02:21:44;;;;;;;0.20;0.20;;;;;;;;;;5024245;28;20033;-94
2022/05/15 02:24:10;;;;;;;0.28;0.28;;;;;;;;;;5019244;28;20034;-92
2022/05/15 02:26:37;;;;;;;0.10;0.10;;;;;;;;;;5008110;28;20081;-92
2022/05/15 02:29:04;;;;;;;0.10;0.10;;;;;;;;;;5017646;28;20068;-93
2022/05/15 02:31:30;;;;;;;0.20;0.20;;;;;;;;;;5025853;28;20041;-93
2022/05/15 02:33:58;;;;;;;1.63;1.27;;;;;;;;;;5029991;28;20072;-93
2022/05/15 02:36:24;;;;;;;0.38;0.38;;;;;;;;;;5025856;28;20565;-93
2022/05/15 02:38:50;;;;;;;0.43;0.43;;;;;;;;;;5011888;28;20121;-94
2022/05/15 02:41:16;;;;;;;0.47;0.47;;;;;;;;;;5008940;28;20038;-94
2022/05/15 02:43:42;;;;;;;0.32;0.32;;;;;;;;;;5026255;28;20037;-93
2022/05/15 02:46:08;;;;;;;0.20;0.10;;;;;;;;;;5004222;28;20034;-93
2022/05/15 02:51:19;;;;;;;0.55;0.32;;;;;;;;;;5022187;28;20048;-94
2022/05/15 02:53:46;;;;;;;0.38;0.38;;;;;;;;;;4999829;28;20403;-93
2022/05/15 02:56:12;;;;;;;;;;;;;;;;;;5029029;28;20092;-93
2022/05/15 02:58:38;;;;;;;0.10;0.10;;;;;;;;;;5017113;28;20627;-94
2022/05/15 03:01:04;;;;;;;0.10;0.10;;;;;;;;;;5008942;28;20096;-93
2022/05/15 03:03:31;;;;;;;0.03;0.03;;;;;;;;;;5003492;28;20030;-95
2022/05/15 03:05:57;;;;;;;0.00;0.00;;;;;;;;;;5024487;28;20068;-94
2022/05/15 03:08:23;;;;;;;0.45;0.28;;;;;;;;;;5011104;28;20469;-94
2022/05/15 03:10:50;;;;;;;0.55;0.55;;;;;;;;;;5024480;28;20033;-95
2022/05/15 03:13:16;;;;;;;0.13;0.13;;;;;;;;;;5024617;28;20038;-94
2022/05/15 03:15:43;;;;;;;0.30;0.30;;;;;;;;;;5025411;28;20029;-95
2022/05/15 03:18:09;;;;;;;0.10;0.10;;;;;;;;;;5021705;28;20264;-94
2022/05/15 03:20:35;;;;;;;0.13;0.13;;;;;;;;;;5027714;28;20520;-95
2022/05/15 03:23:01;;;;;;;0.28;0.20;;;;;;;;;;5011942;28;20033;-94
2022/05/15 03:25:27;;;;;;;5.78;1.35;;;;;;;;;;5022730;28;20048;-93
2022/05/15 03:27:56;;;;;;;0.00;0.00;;;;;;;;;;5021893;28;20844;-94
2022/05/15 03:30:23;;;;;;;1.10;0.63;;;;;;;;;;5010873;28;20032;-94
2022/05/15 03:32:49;;;;;;;12.07;0.38;;;;;;;;;;5008329;28;20084;-94
2022/05/15 03:35:15;;;;;;;0.30;0.30;;;;;;;;;;5024664;28;20465;-94
2022/05/15 03:37:42;;;;;;;0.30;0.30;;;;;;;;;;5006374;28;20494;-93
2022/05/15 03:40:10;;;;;;;1.30;0.50;;;;;;;;;;5023384;28;20545;-93
2022/05/15 03:42:36;;;;;;;0.32;0.32;;;;;;;;;;5025055;28;20030;-93
2022/05/15 03:45:03;;;;;;;0.35;0.35;;;;;;;;;;5010136;28;20025;-91
2022/05/15 03:47:29;;;;;;;0.77;0.60;;;;;;;;;;5015932;28;20141;-94
2022/05/15 03:49:55;;;;;;;0.45;0.45;;;;;;;;;;5027087;28;20031;-93
2022/05/15 03:52:21;;;;;;;0.20;0.20;;;;;;;;;;5008521;28;20037;-94
2022/05/15 03:54:47;;;;;;;0.13;0.13;;;;;;;;;;5018957;28;20037;-93
2022/05/15 03:57:14;;;;;;;0.20;0.20;;;;;;;;;;5027809;28;20033;-93
2022/05/15 03:59:41;;;;;;;0.30;0.30;;;;;;;;;;5022615;28;20144;-92
2022/05/15 04:02:09;;;;;;;3.15;0.93;;;;;;;;;;5005906;28;20095;-92
2022/05/15 04:04:35;;;;;;;0.20;0.20;;;;;;;;;;5017332;28;20041;-94
2022/05/15 04:07:02;;;;;;;0.15;0.10;;;;;;;;;;5001945;28;20029;-95
2022/05/15 04:09:29;;;;;;;0.20;0.20;;;;;;;;;;5010704;28;20047;-94
2022/05/15 04:11:55;;;;;;;0.85;0.85;;;;;;;;;;5020636;28;20076;-93
2022/05/15 04:14:22;;;;;;;0.20;0.20;;;;;;;;;;5002758;28;20053;-94
2022/05/15 04:16:48;;;;;;;0.25;0.25;;;;;;;;;;5015049;28;20288;-95
2022/05/15 04:19:14;;;;;;;0.05;0.05;;;;;;;;;;5012756;28;20041;-92
2022/05/15 04:21:40;;;;;;;2.20;1.17;;;;;;;;;;4992083;28;20029;-90
2022/05/15 04:24:12;;;;;;;0.00;0.00;;;;;;;;;;5011380;28;20284;-91
2022/05/15 04:26:39;;;;;;;0.93;0.90;;;;;;;;;;5005381;28;23623;-91
2022/05/15 04:29:05;;;;;;;0.55;0.30;;;;;;;;;;5002246;28;20160;-92
2022/05/15 04:31:31;;;;;;;0.13;0.13;;;;;;;;;;5024671;28;20025;-91
2022/05/15 04:33:57;;;;;;;0.17;0.17;;;;;;;;;;5020213;28;20518;-90
2022/05/15 04:36:24;;;;;;;0.77;0.77;;;;;;;;;;5019065;28;20045;-91
2022/05/15 04:38:50;;;;;;;0.35;0.35;;;;;;;;;;5003041;28;20564;-89
2022/05/15 04:41:16;;;;;;;0.15;0.15;;;;;;;;;;5022156;28;20124;-88
2022/05/15 04:43:42;;;;;;;0.43;0.20;;;;;;;;;;5018224;28;20033;-90
2022/05/15 04:46:09;;;;;;;0.20;0.20;;;;;;;;;;5007154;28;20041;-88
2022/05/15 04:48:35;;;;;;;0.75;0.30;;;;;;;;;;5013800;28;20037;-88
2022/05/15 04:51:01;;;;;;;0.28;0.28;;;;;;;;;;4997817;28;20029;-89
2022/05/15 04:53:27;;;;;;;2.53;1.17;;;;;;;;;;5015957;28;20048;-94
2022/05/15 04:55:54;;;;;;;0.43;0.43;;;;;;;;;;5021475;28;20419;-93
2022/05/15 04:58:20;;;;;;;0.43;0.20;;;;;;;;;;5018002;28;20121;-90
2022/05/15 05:00:46;;;;;;;0.90;0.90;;;;;;;;;;5013667;28;20029;-89
2022/05/15 05:03:12;;;;;;;0.30;0.30;;;;;;;;;;5016855;28;20128;-90
2022/05/15 05:05:38;;;;;;;0.30;0.30;;;;;;;;;;5018683;28;20068;-88
2022/05/15 05:08:05;;;;;;;1.42;0.38;;;;;;;;;;5019595;28;20608;-90
2022/05/15 05:10:31;;;;;;;2.25;0.13;;;;;;;;;;5010564;28;20041;-89
2022/05/15 05:12:57;;;;;;;0.65;0.55;;;;;;;;;;5020144;28;20132;-90
2022/05/15 05:15:23;;;;;;;0.35;0.35;;;;;;;;;;5021028;28;20124;-89
2022/05/15 05:17:49;;;;;;;8.18;0.63;;;;;;;;;;5020112;28;20083;-90
2022/05/15 05:20:16;;;;;;;0.40;0.40;;;;;;;;;;5022173;28;20037;-90
2022/05/15 05:22:42;;;;;;;0.30;0.10;;;;;;;;;;5018810;28;20112;-90
2022/05/15 05:25:09;;;;;;;0.55;0.43;;;;;;;;;;5017028;28;20393;-90
2022/05/15 05:27:36;;;;;;;0.15;0.15;;;;;;;;;;5019170;28;20048;-90
2022/05/15 05:30:02;;;;;;;0.63;0.57;;;;;;;;;;4997539;28;20030;-90
2022/05/15 05:32:29;;;;;;;0.32;0.32;;;;;;;;;;5021675;28;20038;-89
2022/05/15 05:34:55;;;;;;;0.03;0.03;;;;;;;;;;5021975;28;20533;-90
2022/05/15 05:37:21;;;;;;;0.68;0.68;;;;;;;;;;5001639;28;20033;-90
2022/05/15 05:39:47;;;;;;;0.52;0.43;;;;;;;;;;5020837;28;20030;-90
2022/05/15 05:42:13;;;;;;;1.15;0.65;;;;;;;;;;5021131;28;20033;-88
2022/05/15 05:44:39;;;;;;;0.20;0.20;;;;;;;;;;5022681;28;20044;-93
2022/05/15 05:47:06;;;;;;;0.60;0.20;;;;;;;;;;5019083;28;20056;-91
2022/05/15 05:49:32;;;;;;;0.65;0.45;;;;;;;;;;5017576;28;20056;-93
2022/05/15 05:52:01;;;;;;;0.20;0.20;;;;;;;;;;4998888;28;20102;-91
2022/05/15 05:54:27;;;;;;;0.30;0.17;;;;;;;;;;5021443;28;20045;-92
2022/05/15 05:56:53;;;;;;;1.60;0.35;;;;;;;;;;5022613;28;20029;-90
2022/05/15 05:59:19;;;;;;;1.58;0.28;;;;;;;;;;5005180;28;20042;-93
2022/05/15 06:01:46;;;;;;;1.08;0.98;;;;;;;;;;5004648;28;20060;-91
2022/05/15 06:06:59;;;;;;;0.28;0.10;;;;;;;;;;5024247;28;20041;-95
2022/05/15 06:09:26;;;;;;;0.25;0.25;;;;;;;;;;5019966;28;20028;-93
2022/05/15 06:11:52;;;;;;;0.05;0.05;;;;;;;;;;5019016;28;20497;-87
2022/05/15 06:14:18;;;;;;;15.90;2.08;;;;;;;;;;5012957;28;20049;-88
2022/05/15 06:17:03;;;;;;;1.65;0.63;;;;;;;;;;5022215;28;20036;-92
2022/05/15 06:19:29;;;;;;;1.08;0.52;;;;;;;;;;5004783;28;20034;-80
2022/05/15 06:21:55;;;;;;;0.73;0.63;;;;;;;;;;5022034;28;20033;-81
2022/05/15 06:24:21;;;;;;;0.10;0.10;;;;;;;;;;5022121;28;20029;-82
2022/05/15 06:26:47;;;;;;;0.30;0.13;;;;;;;;;;5021841;28;20063;-80
2022/05/15 06:29:14;;;;;;;0.57;0.20;;;;;;;;;;5018117;28;20032;-82
2022/05/15 06:31:40;;;;;;;;;;;;;;;;;;5021805;28;20084;-82
2022/05/15 06:34:06;;;;;;;8.50;0.20;;;;;;;;;;5021943;28;20366;-92
2022/05/15 06:36:32;;;;;;;1.02;0.63;;;;;;;;;;5025893;28;20125;-92
2022/05/15 06:39:21;;;;;;;0.13;0.13;;;;;;;;;;4991507;28;20044;-91
2022/05/15 06:44:34;;;;;;;0.15;0.15;;;;;;;;;;5033633;22;20060;-75
2022/05/15 06:47:00;;;;;;;0.10;0.10;;;;;;;;;;5043310;28;20037;-74
2022/05/15 06:49:26;;;;;;;0.35;0.35;;;;;;;;;;5042622;28;20033;-75
2022/05/15 06:51:52;;;;;;;0.30;0.10;;;;;;;;;;5038837;28;20029;-74
2022/05/15 06:54:18;;;;;;;;;;;;;;;;;;5031008;28;20032;-75
2022/05/15 06:59:29;;;;;;;0.30;0.30;;;;;;;;;;5026176;28;20051;-76
2022/05/15 07:01:55;;;;;;;0.20;0.20;;;;;;;;;;5032996;28;20046;-76
2022/05/15 07:04:21;;;;;;;;;;;;;;;;;;5031588;28;20036;-76
2022/05/15 07:06:47;;;;;;;0.10;0.10;;;;;;;;;;5033775;28;20379;-76
2022/05/15 07:09:13;;;;;;;0.13;0.13;;;;;;;;;;5027269;28;20075;-76
2022/05/15 07:11:40;;;;;;;;;;;;;;;;;;5034344;28;20029;-76
2022/05/15 07:14:08;;;;;;;0.13;0.13;;;;;;;;;;5026289;28;19917;-76
2022/05/15 07:16:34;;;;;;;0.10;0.10;;;;;;;;;;5028684;28;20485;-78
2022/05/15 07:19:00;;;;;;;0.38;0.10;;;;;;;;;;5030341;28;20030;-78
2022/05/15 07:21:26;;;;;;;0.93;0.40;;;;;;;;;;5030976;28;20076;-77
2022/05/15 07:23:52;;;;;;;1.25;0.63;;;;;;;;;;5026616;28;20064;-77
2022/05/15 07:26:18;;;;;;;0.20;0.10;;;;;;;;;;5027515;28;20025;-78
2022/05/15 07:28:50;;;;;;;0.47;0.47;;;;;;;;;;5031884;28;20032;-78
2022/05/15 07:31:18;;;;;;;0.35;0.35;;;;;;;;;;5031990;28;21010;-79
2022/05/15 07:33:44;;;;;;;0.22;0.22;;;;;;;;;;5031973;28;20032;-78
2022/05/15 07:36:10;;;;;;;1.00;0.55;;;;;;;;;;5031293;28;20119;-78
2022/05/15 07:38:36;;;;;;;1.58;0.93;;;;;;;;;;5034772;28;20034;-72
2022/05/15 07:41:02;;;;;;;0.35;0.35;;;;;;;;;;5028804;28;20040;-73
2022/05/15 07:43:29;;;;;;;0.40;0.30;;;;;;;;;;5034506;28;20029;-76
2022/05/15 07:45:55;;;;;;;0.88;0.55;;;;;;;;;;5030769;28;20809;-73
2022/05/15 07:48:21;;;;;;;0.30;0.30;;;;;;;;;;5029966;28;20037;-73
2022/05/15 07:50:48;;;;;;;0.20;0.20;;;;;;;;;;5018893;28;20733;-73
2022/05/15 07:53:14;;;;;;;0.35;0.10;;;;;;;;;;5037950;28;20026;-73
2022/05/15 07:55:40;;;;;;;0.45;0.38;;;;;;;;;;5035400;28;20036;-73
2022/05/15 07:58:07;;;;;;;0.75;0.38;;;;;;;;;;5044108;28;20028;-73
2022/05/15 08:00:33;;;;;;;0.13;0.13;;;;;;;;;;5041149;28;20036;-74
2022/05/15 08:03:10;;;;;;;0.95;0.90;;;;;;;;;;5041599;28;20025;-74
2022/05/15 08:08:22;;;;;;;0.38;0.25;;;;;;;;;;5036491;28;20124;-73
2022/05/15 08:10:48;;;;;;;0.20;0.20;;;;;;;;;;5042096;28;20036;-73
2022/05/15 08:13:16;;;;;;;0.00;0.00;;;;;;;;;;5036482;28;20040;-73
2022/05/15 08:15:43;;;;;;;3.20;0.70;;;;;;;;;;5035964;28;20036;-74
2022/05/15 08:23:41;;;;;;;0.10;0.10;;;;;;;;;;5031960;28;19996;-72
2022/05/15 08:26:07;;;;;;;0.38;0.22;;;;;;;;;;5031399;28;20029;-73
2022/05/15 08:28:34;;;;;;;0.10;0.10;;;;;;;;;;5032676;28;20029;-73
2022/05/15 08:31:01;;;;;;;0.00;0.00;;;;;;;;;;5032779;28;20492;-73
2022/05/15 08:33:28;;;;;;;0.17;0.10;;;;;;;;;;5029553;28;20040;-73
2022/05/15 08:35:54;;;;;;;2.53;0.52;;;;;;;;;;5031854;28;20032;-72
2022/05/15 08:38:20;;;;;;;0.17;0.17;;;;;;;;;;5040423;28;20032;-73
2022/05/15 08:40:49;;;;;;;0.00;0.00;;;;;;;;;;5030790;28;20103;-73
2022/05/15 08:43:18;;;;;;;0.20;0.20;;;;;;;;;;5030491;28;20029;-72
2022/05/15 08:45:47;;;;;;;0.80;0.80;;;;;;;;;;5030865;28;20393;-73
2022/05/15 08:48:13;;;;;;;1.25;0.52;;;;;;;;;;5036610;28;20024;-73
2022/05/15 08:50:45;;;;;;;0.32;0.32;;;;;;;;;;5028279;28;20048;-73
2022/05/15 08:53:29;;;;;;;0.57;0.47;;;;;;;;;;5042197;28;20040;-73
2022/05/15 08:55:57;;;;;;;1.73;0.70;;;;;;;;;;5029898;28;20033;-73
2022/05/15 08:58:41;;;;;;;0.00;0.00;;;;;;;;;;5030387;28;20025;-73
2022/05/15 09:01:09;;;;;;;4.50;0.88;;;;;;;;;;5030590;28;20030;-73
2022/05/15 09:03:38;;;;;;;0.32;0.32;;;;;;;;;;5029625;28;20041;-74
2022/05/15 09:06:22;;;;;;;0.10;0.10;;;;;;;;;;5029653;28;20025;-73
2022/05/15 09:09:11;;;;;;;0.17;0.17;;;;;;;;;;5040596;28;20053;-73
2022/05/15 09:11:41;;;;;;;0.10;0.10;;;;;;;;;;5017012;28;20119;-73
2022/05/15 09:14:36;;;;;;;0.05;0.00;;;;;;;;;;5026930;28;20030;-73
2022/05/15 09:17:15;;;;;;;0.40;0.40;;;;;;;;;;5014564;28;20507;-73
2022/05/15 09:19:41;;;;;;;0.50;0.35;;;;;;;;;;5029231;28;20078;-73
2022/05/15 09:22:08;;;;;;;1.92;0.77;;;;;;;;;;5029017;28;20056;-73
2022/05/15 09:24:43;;;;;;;0.10;0.10;;;;;;;;;;5028978;28;20155;-73
2022/05/15 09:27:17;;;;;;;0.08;0.00;;;;;;;;;;5038461;28;20068;-73
2022/05/15 09:29:50;;;;;;;0.00;0.00;;;;;;;;;;5039487;28;20017;-73
2022/05/15 09:32:40;;;;;;;0.38;0.30;;;;;;;;;;5040293;28;20550;-74
2022/05/15 09:35:10;;;;;;;0.10;0.10;;;;;;;;;;5030867;28;20067;-74
2022/05/15 09:40:24;;;;;;;0.30;0.25;;;;;;;;;;5032056;28;21810;-74
2022/05/15 09:45:37;;;;;;;0.22;0.13;;;;;;;;;;5027099;28;20433;-74
2022/05/15 09:48:05;;;;;;;5.47;1.05;;;;;;;;;;5033600;28;20027;-74
2022/05/15 09:50:40;;;;;;;1.65;0.10;;;;;;;;;;5028769;28;20539;-74
2022/05/15 09:53:08;;;;;;;0.45;0.45;;;;;;;;;;5032366;28;20033;-74
2022/05/15 09:55:34;;;;;;;0.00;0.00;;;;;;;;;;5035179;28;20936;-74
2022/05/15 09:58:03;;;;;;;0.73;0.73;;;;;;;;;;5010401;28;20100;-74
2022/05/15 10:00:31;;;;;;;0.10;0.10;;;;;;;;;;5020067;28;20037;-74
2022/05/15 10:03:03;;;;;;;0.70;0.52;;;;;;;;;;5031399;28;20025;-74
2022/05/15 10:05:34;;;;;;;2.63;1.35;;;;;;;;;;5038824;28;20064;-74
2022/05/15 10:08:05;;;;;;;1.90;0.52;;;;;;;;;;5034758;28;20033;-74
2022/05/15 10:10:34;;;;;;;0.00;0.00;;;;;;;;;;5028515;28;20091;-74
2022/05/15 10:13:05;;;;;;;0.28;0.28;;;;;;;;;;5030519;28;20032;-74
2022/05/15 10:15:35;;;;;;;0.60;0.60;;;;;;;;;;5031124;28;20041;-75
2022/05/15 10:18:03;;;;;;;0.17;0.15;;;;;;;;;;5032951;28;20036;-75
2022/05/15 10:20:30;;;;;;;0.15;0.15;;;;;;;;;;5033635;28;20139;-75
2022/05/15 10:23:00;;;;;;;0.10;0.10;;;;;;;;;;5029053;28;20843;-75
2022/05/15 10:25:33;;;;;;;0.00;0.00;;;;;;;;;;5030361;28;20087;-75
2022/05/15 10:28:20;;;;;;;0.10;0.10;;;;;;;;;;5029946;28;20029;-75
2022/05/15 10:30:56;;;;;;;0.10;0.10;;;;;;;;;;5017690;28;20041;-76
2022/05/15 10:33:22;;;;;;;0.00;0.00;;;;;;;;;;5031061;28;20071;-75
2022/05/15 10:35:51;;;;;;;0.08;0.08;;;;;;;;;;5031360;28;20029;-74
2022/05/15 10:38:27;;;;;;;0.40;0.35;;;;;;;;;;5030720;28;20060;-75
2022/05/15 10:41:09;;;;;;;4.68;1.08;;;;;;;;;;5029194;28;20067;-74
2022/05/15 10:43:40;;;;;;;0.50;0.43;;;;;;;;;;5034076;28;20040;-74
2022/05/15 10:46:19;;;;;;;1.48;0.55;;;;;;;;;;5032806;28;20553;-74
2022/05/15 10:48:45;;;;;;;0.80;0.63;;;;;;;;;;5035437;28;20508;-74
2022/05/15 10:51:20;;;;;;;0.17;0.10;;;;;;;;;;5032731;28;20091;-74
2022/05/15 10:59:31;;;;;;;0.00;0.00;;;;;;;;;;5039524;28;20039;-74
2022/05/15 11:02:26;;;;;;;2.42;0.52;;;;;;;;;;5034910;28;20032;-74
2022/05/15 11:04:58;;;;;;;0.10;0.10;;;;;;;;;;5036559;28;20647;-74
2022/05/15 11:07:27;;;;;;;2.20;0.20;;;;;;;;;;5021102;28;20091;-75
2022/05/15 11:10:02;;;;;;;0.35;0.25;;;;;;;;;;5045313;28;20033;-74
2022/05/15 11:12:45;;;;;;;0.00;0.00;;;;;;;;;;5044718;28;20123;-74
2022/05/15 11:15:14;;;;;;;0.10;0.10;;;;;;;;;;5040871;28;20566;-74
2022/05/15 11:17:53;;;;;;;0.00;0.00;;;;;;;;;;5034922;28;20039;-74
2022/05/15 11:20:24;;;;;;;0.15;0.15;;;;;;;;;;5036474;28;20033;-73
2022/05/15 11:22:52;;;;;;;0.30;0.30;;;;;;;;;;5035072;28;20078;-74
2022/05/15 11:25:25;;;;;;;5.32;1.40;;;;;;;;;;5037702;28;20055;-74
2022/05/15 11:27:53;;;;;;;0.28;0.28;;;;;;;;;;5037292;28;20531;-74
2022/05/15 11:30:25;;;;;;;0.10;0.10;;;;;;;;;;5034578;28;20029;-74
2022/05/15 11:32:54;;;;;;;0.17;0.10;;;;;;;;;;5036257;28;20937;-75
2022/05/15 11:35:23;;;;;;;9.63;0.85;;;;;;;;;;5033541;28;20124;-74
2022/05/15 11:38:07;;;;;;;0.10;0.10;;;;;;;;;;5032817;28;20053;-74
2022/05/15 11:40:33;;;;;;;0.08;0.08;;;;;;;;;;5036716;28;20114;-73
2022/05/15 11:42:59;;;;;;;;;;;;;;;;;;5022846;28;20032;-74
2022/05/15 11:45:32;;;;;;;0.20;0.20;;;;;;;;;;5018010;28;19921;-74
2022/05/15 11:48:01;;;;;;;0.17;0.15;;;;;;;;;;5016886;28;20041;-74
2022/05/15 11:50:31;;;;;;;0.13;0.13;;;;;;;;;;5033111;28;20457;-74
2022/05/15 11:52:57;;;;;;;0.93;0.93;;;;;;;;;;5036009;28;20886;-73
2022/05/15 11:55:42;;;;;;;0.10;0.10;;;;;;;;;;5034523;28;20041;-73
2022/05/15 11:58:11;;;;;;;0.00;0.00;;;;;;;;;;5036208;28;20108;-73
2022/05/15 12:00:41;;;;;;;0.20;0.20;;;;;;;;;;5034560;28;20081;-74
2022/05/15 12:03:27;;;;;;;0.55;0.32;;;;;;;;;;5034977;28;20192;-74
2022/05/15 12:06:05;;;;;;;0.17;0.13;;;;;;;;;;5029972;28;20044;-73
2022/05/15 12:08:34;;;;;;;1.55;0.70;;;;;;;;;;5033912;28;20264;-74
2022/05/15 12:11:19;;;;;;;0.47;0.45;;;;;;;;;;5037074;28;20029;-73
2022/05/15 12:13:46;;;;;;;0.30;0.25;;;;;;;;;;5040564;28;20128;-73
2022/05/15 12:16:18;;;;;;;0.20;0.20;;;;;;;;;;5034538;28;20064;-74
2022/05/15 12:18:46;;;;;;;1.95;0.63;;;;;;;;;;5029074;28;20033;-74
2022/05/15 12:21:15;;;;;;;0.68;0.57;;;;;;;;;;5033289;28;20106;-74
2022/05/15 12:24:27;;;;;;;1.00;0.82;;;;;;;;;;5028699;28;20500;-75
2022/05/15 12:26:50;;;;;;;0.32;0.22;;;;;;;;;;5039399;28;20190;-75
2022/05/15 12:29:28;;;;;;;0.70;0.53;;;;;;;;;;5040240;28;20120;-75
2022/05/15 12:31:56;;;;;;;0.73;0.15;;;;;;;;;;5041054;28;20367;-74
2022/05/15 12:34:31;;;;;;;0.25;0.25;;;;;;;;;;5038442;28;20761;-75
2022/05/15 12:37:01;;;;;;;0.20;0.20;;;;;;;;;;5034201;28;20029;-75
2022/05/15 12:39:28;;;;;;;0.30;0.30;;;;;;;;;;5035276;28;20032;-79
2022/05/15 12:41:59;;;;;;;0.10;0.10;;;;;;;;;;5039200;28;20699;-79
2022/05/15 12:44:33;;;;;;;4.47;1.10;;;;;;;;;;5040246;28;20033;-78
2022/05/15 12:47:01;;;;;;;0.03;0.03;;;;;;;;;;5041091;28;20040;-84
2022/05/15 12:49:30;;;;;;;0.20;0.20;;;;;;;;;;5042987;28;20036;-79
2022/05/15 12:52:08;;;;;;;0.25;0.25;;;;;;;;;;5041822;28;20065;-80
2022/05/15 12:54:34;;;;;;;1.05;0.63;;;;;;;;;;5035069;28;20044;-79
2022/05/15 12:57:02;;;;;;;0.25;0.25;;;;;;;;;;5037566;28;20033;-78
2022/05/15 12:59:28;;;;;;;0.52;0.50;;;;;;;;;;5041786;28;20074;-79
2022/05/15 13:01:55;;;;;;;0.28;0.28;;;;;;;;;;5041547;28;20295;-80
2022/05/15 13:04:21;;;;;;;;;;;;;;;;;;5040181;28;20040;-78
2022/05/15 13:06:54;;;;;;;0.10;0.10;;;;;;;;;;5040695;28;20380;-78
2022/05/15 13:09:25;;;;;;;0.10;0.10;;;;;;;;;;5042346;28;20033;-78
2022/05/15 13:11:54;;;;;;;0.65;0.63;;;;;;;;;;5041314;28;20025;-79
2022/05/15 13:14:20;;;;;;;0.00;0.00;;;;;;;;;;5034558;28;20786;-78
2022/05/15 13:16:49;;;;;;;1.17;0.75;;;;;;;;;;5016492;28;20103;-79
2022/05/15 13:19:17;;;;;;;0.50;0.30;;;;;;;;;;5031771;28;20021;-79
2022/05/15 13:21:49;;;;;;;0.13;0.13;;;;;;;;;;5032100;28;20032;-79
2022/05/15 13:24:16;;;;;;;0.30;0.30;;;;;;;;;;5034025;28;20056;-78
2022/05/15 13:26:47;;;;;;;0.10;0.10;;;;;;;;;;5040345;28;20036;-79
2022/05/15 13:29:16;;;;;;;1.40;0.35;;;;;;;;;;5023520;28;20032;-79
2022/05/15 13:31:42;;;;;;;10.95;0.93;;;;;;;;;;5040277;28;20032;-79
2022/05/15 13:34:13;;;;;;;0.08;0.08;;;;;;;;;;5041287;28;20115;-78
2022/05/15 13:36:49;;;;;;;2.33;1.40;;;;;;;;;;5020289;28;20032;-78
2022/05/15 13:44:49;;;;;;;2.05;1.17;;;;;;;;;;5041188;28;20075;-76
2022/05/15 13:47:16;;;;;;;4.13;0.90;;;;;;;;;;5040756;28;20408;-77
2022/05/15 13:49:53;;;;;;;1.35;0.43;;;;;;;;;;5034874;28;20027;-78
2022/05/15 13:52:31;;;;;;;0.40;0.30;;;;;;;;;;5039480;28;20115;-83
2022/05/15 13:54:59;;;;;;;1.00;0.65;;;;;;;;;;5033427;28;20112;-84
2022/05/15 13:57:26;;;;;;;0.85;0.25;;;;;;;;;;5035978;28;20025;-84
2022/05/15 13:59:52;;;;;;;0.30;0.30;;;;;;;;;;5041572;28;20106;-83
2022/05/15 14:02:23;;;;;;;0.85;0.55;;;;;;;;;;5041620;28;20055;-84
2022/05/15 14:05:09;;;;;;;0.38;0.20;;;;;;;;;;5041738;28;20047;-84
2022/05/15 14:07:37;;;;;;;0.10;0.10;;;;;;;;;;5026884;28;20037;-83
2022/05/15 14:10:18;;;;;;;2.13;0.85;;;;;;;;;;5041491;28;20037;-84
2022/05/15 14:13:01;;;;;;;0.10;0.10;;;;;;;;;;5039647;28;20485;-84
2022/05/15 14:15:37;;;;;;;2.97;1.10;;;;;;;;;;5040029;28;20049;-84
2022/05/15 14:18:24;;;;;;;0.20;0.20;;;;;;;;;;5041532;28;20394;-84
2022/05/15 14:20:52;;;;;;;0.00;0.00;;;;;;;;;;5042083;28;20024;-84
2022/05/15 14:23:23;;;;;;;1.85;0.75;;;;;;;;;;5040736;28;20044;-84
2022/05/15 14:25:49;;;;;;;1.88;0.55;;;;;;;;;;5022867;28;20033;-84
2022/05/15 14:28:16;;;;;;;1.23;0.45;;;;;;;;;;5037136;28;20091;-84
2022/05/15 14:30:43;;;;;;;3.22;0.98;;;;;;;;;;5043952;28;20029;-84
2022/05/15 14:33:10;;;;;;;0.10;0.10;;;;;;;;;;5040499;28;20029;-85
2022/05/15 14:35:48;;;;;;;0.40;0.40;;;;;;;;;;5036810;28;20052;-84
2022/05/15 14:38:14;;;;;;;0.32;0.32;;;;;;;;;;5041312;28;20112;-84
2022/05/15 14:40:40;;;;;;;2.95;0.65;;;;;;;;;;5044597;28;20120;-84
2022/05/15 14:43:06;;;;;;;0.65;0.30;;;;;;;;;;5039185;28;20037;-84
2022/05/15 14:45:37;;;;;;;0.35;0.35;;;;;;;;;;5040334;28;20057;-83
2022/05/15 14:48:04;;;;;;;0.75;0.75;;;;;;;;;;5036329;28;20025;-83
2022/05/15 14:50:31;;;;;;;0.30;0.25;;;;;;;;;;5044890;28;20420;-84
2022/05/15 14:52:57;;;;;;;;;;;;;;;;;;5039209;28;20041;-84
2022/05/15 14:56:07;;;;;;;0.65;0.40;;;;;;;;;;5036921;28;19931;-84
2022/05/15 14:58:12;;;;;;;0.32;0.32;;;;;;;;;;5042262;28;20581;-85
2022/05/15 15:00:38;;;;;;;0.00;0.00;;;;;;;;;;5043858;28;20405;-84
2022/05/15 15:03:04;;;;;;;1.55;0.85;;;;;;;;;;5043778;28;20538;-84
2022/05/15 15:05:44;;;;;;;0.63;0.60;;;;;;;;;;5044465;28;20064;-84
2022/05/15 15:08:11;;;;;;;0.10;0.10;;;;;;;;;;5043030;28;20162;-84
2022/05/15 15:10:37;;;;;;;0.00;0.00;;;;;;;;;;5041192;28;20071;-84
2022/05/15 15:13:03;;;;;;;0.10;0.10;;;;;;;;;;5037213;28;20024;-84
2022/05/15 15:15:29;;;;;;;0.47;0.22;;;;;;;;;;5043014;28;20513;-84
2022/05/15 15:17:55;;;;;;;3.33;1.23;;;;;;;;;;5043661;28;20025;-84
2022/05/15 15:20:22;;;;;;;11.27;1.00;;;;;;;;;;5043022;28;20338;-84
2022/05/15 15:22:48;;;;;;;0.32;0.32;;;;;;;;;;5023816;28;20520;-84
2022/05/15 15:25:14;;;;;;;0.00;0.00;;;;;;;;;;5043346;28;20037;-84
2022/05/15 15:27:40;;;;;;;0.10;0.10;;;;;;;;;;5023877;28;20120;-84
2022/05/15 15:30:06;;;;;;;0.30;0.25;;;;;;;;;;5043665;28;20029;-84
2022/05/15 15:32:32;;;;;;;;;;;;;;;;;;5026651;28;20098;-84
2022/05/15 15:34:58;;;;;;;;;;;;;;;;;;5044280;28;19924;-84